Time;durP1;ratioP1;P1;durP2;ratioP2;P2;SDS_P1;SDS_P2;PMS_P1;PMS_P2;Temp;Humidity;BMP_temperature;BMP_pressure;BME280_temperature;BME280_humidity;BME280_pressure;Samples;Min_cycle;Max_cycle;Signal;HPM_P1;HPM_P2
2021/12/17 00:04:30;;;;;;;;;;;7.90;99.90;;;;;;5096386;28;19915;-79
2021/12/17 00:06:56;;;;;;;;;;;7.80;99.90;;;;;;5096173;28;20006;-79
2021/12/17 00:09:22;;;;;;;;;;;7.80;99.90;;;;;;5077879;28;20009;-79
2021/12/17 00:11:48;;;;;;;;;;;7.90;99.90;;;;;;5095808;28;20281;-79
2021/12/17 00:14:21;;;;;;;;;;;7.90;99.90;;;;;;5096049;28;20266;-79
2021/12/17 00:16:47;;;;;;;;;;;7.80;99.90;;;;;;5095708;28;20440;-79
2021/12/17 00:19:25;;;;;;;;;;;7.80;99.90;;;;;;5095551;28;19920;-79
2021/12/17 00:48:56;;;;;;;;;;;7.80;99.90;;;;;;5095168;28;20366;-79
2021/12/17 00:54:18;;;;;;;;;;;7.80;99.90;;;;;;5095176;28;19974;-79
2021/12/17 00:56:44;;;;;;;;;;;7.70;99.90;;;;;;5076748;28;19927;-79
2021/12/17 00:59:10;;;;;;;;;;;7.70;99.90;;;;;;5094996;28;20006;-79
2021/12/17 01:01:35;;;;;;;;;;;8.40;99.90;;;;;;5094897;28;19920;-79
2021/12/17 01:04:01;;;;;;;;;;;7.70;99.90;;;;;;5094984;28;19919;-79
2021/12/17 01:06:27;;;;;;;;;;;8.10;99.90;;;;;;5094554;28;20286;-79
2021/12/17 01:08:53;;;;;;;;;;;7.70;99.90;;;;;;5094832;28;19920;-79
2021/12/17 01:11:19;;;;;;;;;;;7.70;99.90;;;;;;5094966;28;19927;-79
2021/12/17 01:13:45;;;;;;;;;;;8.10;99.90;;;;;;5076349;28;20023;-79
2021/12/17 01:16:11;;;;;;;;;;;7.70;99.90;;;;;;5093591;28;20065;-79
2021/12/17 01:19:17;;;;;;;;;;;8.10;99.90;;;;;;5076550;28;19927;-79
2021/12/17 01:21:41;;;;;;;;;;;8.00;99.90;;;;;;5072087;28;19942;-79
2021/12/17 01:24:53;;;;;;;;;;;7.70;99.90;;;;;;5094600;28;19919;-79
2021/12/17 01:35:21;;;;;;;;;;;7.90;99.90;;;;;;5094431;28;19955;-79
2021/12/17 01:38:43;;;;;;;;;;;7.70;99.90;;;;;;5094179;28;19920;-79
2021/12/17 01:40:58;;;;;;;;;;;7.80;99.90;;;;;;5094259;28;19924;-79
2021/12/17 01:43:22;;;;;;;;;;;7.60;99.90;;;;;;5093991;28;20381;-79
2021/12/17 01:45:47;;;;;;;;;;;7.60;99.90;;;;;;5093101;28;19920;-79
2021/12/17 01:48:18;;;;;;;;;;;7.70;99.90;;;;;;5075757;28;19973;-79
2021/12/17 02:01:27;;;;;;;;;;;7.60;99.90;;;;;;5094007;28;19924;-79
2021/12/17 02:03:52;;;;;;;;;;;7.70;99.90;;;;;;5097465;28;20449;-79
2021/12/17 02:06:20;;;;;;;;;;;7.70;99.90;;;;;;5080252;28;20022;-79
2021/12/17 02:08:47;;;;;;;;;;;7.70;99.90;;;;;;5098457;28;20342;-79
2021/12/17 02:22:34;;;;;;;;;;;7.80;99.90;;;;;;5098031;28;19923;-79
2021/12/17 02:32:58;;;;;;;;;;;8.00;99.90;;;;;;5097841;28;19919;-79
2021/12/17 02:37:55;;;;;;;;;;;7.60;99.90;;;;;;5097763;28;19927;-79
2021/12/17 02:45:46;;;;;;;;;;;7.60;99.90;;;;;;5097736;28;20443;-79
2021/12/17 02:48:12;;;;;;;;;;;7.70;99.90;;;;;;5097670;28;20026;-79
2021/12/17 02:50:40;;;;;;;;;;;7.60;99.90;;;;;;5097665;28;19970;-79
2021/12/17 02:53:09;;;;;;;;;;;7.60;99.90;;;;;;5097568;28;19927;-79
2021/12/17 02:55:36;;;;;;;;;;;7.70;99.90;;;;;;5097370;28;19920;-79
2021/12/17 02:58:04;;;;;;;;;;;7.60;99.90;;;;;;5097520;28;20010;-79
2021/12/17 03:00:29;;;;;;;;;;;8.00;99.90;;;;;;5098051;28;19967;-79
2021/12/17 03:02:55;;;;;;;;;;;7.60;99.90;;;;;;5097659;28;19967;-79
2021/12/17 03:05:22;;;;;;;;;;;7.60;99.90;;;;;;5079597;28;19924;-79
2021/12/17 03:07:48;;;;;;;;;;;7.60;99.90;;;;;;5096793;28;19926;-79
2021/12/17 03:10:15;;;;;;;;;;;7.60;99.90;;;;;;5096984;28;20366;-79
2021/12/17 03:13:14;;;;;;;;;;;7.60;99.90;;;;;;5097641;28;20284;-79
2021/12/17 03:15:42;;;;;;;;;;;7.60;99.90;;;;;;5093580;28;20016;-79
2021/12/17 03:23:41;;;;;;;;;;;8.00;99.90;;;;;;5096739;28;19920;-79
2021/12/17 03:26:08;;;;;;;;;;;7.60;99.90;;;;;;5097035;28;20010;-79
2021/12/17 03:28:34;;;;;;;;;;;7.60;99.90;;;;;;5078504;28;19998;-79
2021/12/17 03:31:00;;;;;;;;;;;7.60;99.90;;;;;;5096792;28;20373;-79
2021/12/17 03:33:26;;;;;;;;;;;7.60;99.90;;;;;;5078252;28;20006;-79
2021/12/17 03:35:52;;;;;;;;;;;7.70;99.90;;;;;;5097145;28;20380;-79
2021/12/17 03:38:18;;;;;;;;;;;7.60;99.90;;;;;;5078484;28;19927;-79
2021/12/17 03:40:45;;;;;;;;;;;7.60;99.90;;;;;;5096686;28;19967;-79
2021/12/17 03:43:12;;;;;;;;;;;7.20;99.90;;;;;;5096593;28;19977;-79
2021/12/17 03:45:41;;;;;;;;;;;7.90;99.90;;;;;;5096536;28;19924;-79
2021/12/17 03:48:07;;;;;;;;;;;7.50;99.90;;;;;;5078443;28;20446;-79
2021/12/17 03:50:35;;;;;;;;;;;7.50;99.90;;;;;;5096537;28;19920;-79
2021/12/17 03:53:00;;;;;;;;;;;7.70;99.90;;;;;;5096761;28;19920;-79
2021/12/17 03:55:26;;;;;;;;;;;7.60;99.90;;;;;;5077953;28;20370;-79
2021/12/17 03:57:52;;;;;;;;;;;7.50;99.90;;;;;;5077953;28;20343;-79
2021/12/17 04:00:18;;;;;;;;;;;7.50;99.90;;;;;;5095977;28;19973;-79
2021/12/17 04:02:44;;;;;;;;;;;7.70;99.90;;;;;;5096132;28;19926;-79
2021/12/17 04:05:09;;;;;;;;;;;7.50;99.90;;;;;;5096181;28;19923;-79
2021/12/17 04:07:35;;;;;;;;;;;7.50;99.90;;;;;;5096121;28;20282;-79
2021/12/17 04:10:01;;;;;;;;;;;7.50;99.90;;;;;;5096088;28;19923;-79
2021/12/17 04:12:41;;;;;;;;;;;7.50;99.90;;;;;;5077932;28;19920;-79
2021/12/17 04:15:08;;;;;;;;;;;7.50;99.90;;;;;;5095950;28;19927;-79
2021/12/17 04:17:41;;;;;;;;;;;7.50;99.90;;;;;;5077426;28;19919;-79
2021/12/17 04:20:07;;;;;;;;;;;7.80;99.90;;;;;;5077500;28;20320;-79
2021/12/17 04:22:33;;;;;;;;;;;7.50;99.90;;;;;;5095752;28;19920;-79
2021/12/17 04:24:58;;;;;;;;;;;7.60;99.90;;;;;;5095386;28;20351;-79
2021/12/17 04:27:24;;;;;;;;;;;7.60;99.90;;;;;;5095651;28;20287;-79
2021/12/17 04:29:51;;;;;;;;;;;7.60;99.90;;;;;;5095539;28;19927;-79
2021/12/17 04:32:17;;;;;;;;;;;7.60;99.90;;;;;;5077716;28;19920;-79
2021/12/17 04:34:43;;;;;;;;;;;7.70;99.90;;;;;;5077543;28;19927;-79
2021/12/17 04:37:08;;;;;;;;;;;7.50;99.90;;;;;;5095631;28;20282;-79
2021/12/17 04:39:34;;;;;;;;;;;7.60;99.90;;;;;;5076876;28;20401;-79
2021/12/17 04:42:06;;;;;;;;;;;7.60;99.90;;;;;;5076897;28;19927;-79
2021/12/17 04:44:35;;;;;;;;;;;7.60;99.90;;;;;;5077326;28;20014;-79
2021/12/17 04:57:47;;;;;;;;;;;7.80;99.90;;;;;;5095170;28;19920;-79
2021/12/17 05:00:19;;;;;;;;;;;7.80;99.90;;;;;;5095481;28;20410;-79
2021/12/17 05:02:48;;;;;;;;;;;7.50;99.90;;;;;;5076586;28;20015;-79
2021/12/17 05:05:14;;;;;;;;;;;7.80;99.90;;;;;;5094759;28;20358;-79
2021/12/17 05:07:45;;;;;;;;;;;7.80;99.90;;;;;;5094637;28;20006;-79
2021/12/17 05:18:27;;;;;;;;;;;7.50;99.90;;;;;;5094618;28;20285;-79
2021/12/17 05:20:56;;;;;;;;;;;7.50;99.90;;;;;;5094723;28;19943;-79
2021/12/17 05:23:26;;;;;;;;;;;7.50;99.90;;;;;;5094685;28;20317;-79
2021/12/17 05:25:52;;;;;;;;;;;7.50;99.90;;;;;;5094543;28;19977;-79
2021/12/17 05:28:17;;;;;;;;;;;8.20;99.90;;;;;;5094505;28;19924;-79
2021/12/17 05:30:46;;;;;;;;;;;7.50;99.90;;;;;;5076269;28;20010;-79
2021/12/17 05:33:13;;;;;;;;;;;7.50;99.90;;;;;;5094384;28;19938;-79
2021/12/17 05:35:38;;;;;;;;;;;7.50;99.90;;;;;;5094635;28;20348;-79
2021/12/17 05:38:04;;;;;;;;;;;8.00;99.90;;;;;;5093457;28;19920;-79
2021/12/17 05:40:29;;;;;;;;;;;8.00;99.90;;;;;;5076511;28;19920;-79
2021/12/17 05:42:59;;;;;;;;;;;8.00;99.90;;;;;;5094307;28;19924;-79
2021/12/17 05:45:47;;;;;;;;;;;7.90;99.90;;;;;;5094232;28;19927;-79
2021/12/17 05:48:14;;;;;;;;;;;7.70;99.90;;;;;;5094436;28;19971;-79
2021/12/17 05:50:40;;;;;;;;;;;7.80;99.90;;;;;;5094367;28;19920;-79
2021/12/17 05:53:07;;;;;;;;;;;7.50;99.90;;;;;;5076104;28;19943;-79
2021/12/17 05:55:33;;;;;;;;;;;8.00;99.90;;;;;;5094253;28;19924;-79
2021/12/17 05:57:58;;;;;;;;;;;7.60;99.90;;;;;;5075913;28;20057;-79
2021/12/17 06:00:25;;;;;;;;;;;7.60;99.90;;;;;;5093771;28;20013;-79
2021/12/17 06:02:51;;;;;;;;;;;7.50;99.90;;;;;;5094733;28;20028;-79
2021/12/17 06:05:17;;;;;;;;;;;7.60;99.90;;;;;;5094186;28;20331;-78
2021/12/17 06:07:43;;;;;;;;;;;7.60;99.90;;;;;;5093989;28;19923;-79
2021/12/17 06:10:09;;;;;;;;;;;7.60;99.90;;;;;;5094046;28;19927;-79
2021/12/17 06:12:38;;;;;;;;;;;7.50;99.90;;;;;;5093937;28;19919;-79
2021/12/17 06:15:05;;;;;;;;;;;7.50;99.90;;;;;;5075481;28;19924;-79
2021/12/17 06:17:30;;;;;;;;;;;7.50;99.90;;;;;;5093848;28;20367;-79
2021/12/17 06:19:56;;;;;;;;;;;7.50;99.90;;;;;;5094350;28;19946;-79
2021/12/17 06:22:21;;;;;;;;;;;7.80;99.90;;;;;;5075952;28;19923;-79
2021/12/17 06:24:47;;;;;;;;;;;7.80;99.90;;;;;;5075727;28;19920;-79
2021/12/17 06:27:14;;;;;;;;;;;7.50;99.90;;;;;;5075731;28;19919;-79
2021/12/17 06:29:40;;;;;;;;;;;7.50;99.90;;;;;;5075341;28;19957;-79
2021/12/17 06:32:06;;;;;;;;;;;7.60;99.90;;;;;;5075957;28;19920;-79
2021/12/17 06:34:32;;;;;;;;;;;7.50;99.90;;;;;;5094020;28;19924;-79
2021/12/17 06:36:57;;;;;;;;;;;7.50;99.90;;;;;;5094105;28;19977;-79
2021/12/17 06:39:24;;;;;;;;;;;7.80;99.90;;;;;;5093734;28;19927;-79
2021/12/17 06:41:50;;;;;;;;;;;7.50;99.90;;;;;;5075945;28;19920;-79
2021/12/17 06:44:21;;;;;;;;;;;7.40;99.90;;;;;;5093736;28;20359;-79
2021/12/17 06:47:04;;;;;;;;;;;7.50;99.90;;;;;;5093805;28;19927;-79
2021/12/17 06:55:01;;;;;;;;;;;7.50;99.90;;;;;;5097431;28;19927;-79
2021/12/17 06:58:26;;;;;;;;;;;7.50;99.90;;;;;;5078994;28;19927;-79
2021/12/17 07:11:55;;;;;;;;;;;7.40;99.90;;;;;;5063104;28;19970;-79
2021/12/17 07:17:13;;;;;;;;;;;7.90;99.90;;;;;;5096909;28;20367;-79
2021/12/17 07:22:47;;;;;;;;;;;7.60;99.90;;;;;;5097031;28;20358;-79
2021/12/17 07:35:56;;;;;;;;;;;7.40;99.90;;;;;;5078946;28;19919;-79
2021/12/17 07:41:00;;;;;;;;;;;7.50;99.90;;;;;;5096437;28;20390;-79
2021/12/17 07:43:30;;;;;;;;;;;7.60;99.90;;;;;;5096647;28;19967;-79
2021/12/17 07:45:56;;;;;;;;;;;7.50;99.90;;;;;;5096477;28;19961;-79
2021/12/17 07:48:22;;;;;;;;;;;7.90;99.90;;;;;;5095528;28;19928;-79
2021/12/17 07:50:48;;;;;;;;;;;7.90;99.90;;;;;;5096486;28;19923;-79
2021/12/17 07:53:13;;;;;;;;;;;7.40;99.90;;;;;;5096261;28;19920;-79
2021/12/17 07:55:39;;;;;;;;;;;7.40;99.90;;;;;;5096355;28;20339;-79
2021/12/17 07:58:05;;;;;;;;;;;7.70;99.90;;;;;;5097730;28;19915;-80
2021/12/17 08:00:30;;;;;;;;;;;7.40;99.90;;;;;;5061689;28;19972;-80
2021/12/17 08:02:56;;;;;;;;;;;7.40;99.90;;;;;;5079075;28;20290;-79
2021/12/17 08:05:21;;;;;;;;;;;8.20;99.90;;;;;;5078979;28;19993;-80
2021/12/17 08:07:47;;;;;;;;;;;7.50;99.90;;;;;;5061827;28;19920;-80
2021/12/17 08:10:13;;;;;;;;;;;8.10;99.90;;;;;;5062505;28;19971;-79
2021/12/17 08:12:38;;;;;;;;;;;7.40;99.90;;;;;;5079824;28;19919;-80
2021/12/17 08:15:06;;;;;;;;;;;8.20;99.90;;;;;;5080148;28;19920;-80
2021/12/17 08:23:30;;;;;;;;;;;7.40;99.90;;;;;;5078852;28;19970;-80
2021/12/17 08:29:06;;;;;;;;;;;7.50;99.90;;;;;;4979850;28;19933;-80
2021/12/17 08:31:34;;;;;;;;;;;8.00;99.90;;;;;;4995479;28;20274;-80
2021/12/17 08:34:02;;;;;;;;;;;7.50;99.90;;;;;;4980208;28;19922;-80
2021/12/17 08:36:28;;;;;;;;;;;8.10;99.90;;;;;;5008023;23;20364;-80
2021/12/17 08:38:54;;;;;;;;;;;7.50;99.90;;;;;;5023092;28;19978;-80
2021/12/17 08:41:21;;;;;;;;;;;7.60;99.90;;;;;;5057496;28;19929;-80
2021/12/17 08:43:46;;;;;;;;;;;7.60;99.90;;;;;;5023390;28;19966;-80
2021/12/17 08:46:12;;;;;;;;;;;7.50;99.90;;;;;;5039472;28;19927;-80
2021/12/17 08:48:38;;;;;;;;;;;7.50;99.90;;;;;;5039662;28;19920;-80
2021/12/17 08:51:04;;;;;;;;;;;8.20;99.90;;;;;;5022526;28;19932;-80
2021/12/17 08:53:29;;;;;;;;;;;7.60;99.90;;;;;;5039075;28;19921;-80
2021/12/17 08:55:55;;;;;;;;;;;8.20;99.90;;;;;;5039433;28;19921;-80
2021/12/17 08:58:20;;;;;;;;;;;7.60;99.90;;;;;;5043538;23;20287;-80
2021/12/17 09:00:46;;;;;;;;;;;7.60;99.90;;;;;;5061955;28;20396;-80
2021/12/17 09:03:12;;;;;;;;;;;8.00;99.90;;;;;;5062295;28;19924;-80
2021/12/17 09:05:38;;;;;;;;;;;7.80;99.90;;;;;;5076671;22;19926;-80
2021/12/17 09:08:04;;;;;;;;;;;7.70;99.90;;;;;;5036788;23;20390;-80
2021/12/17 09:10:30;;;;;;;;;;;7.60;99.90;;;;;;5023082;28;19978;-80
2021/12/17 09:12:56;;;;;;;;;;;7.70;99.90;;;;;;5022541;28;20363;-80
2021/12/17 09:15:21;;;;;;;;;;;7.70;99.90;;;;;;5022469;28;19970;-80
2021/12/17 09:17:47;;;;;;;;;;;7.70;99.90;;;;;;5039156;28;19932;-80
2021/12/17 09:20:13;;;;;;;;;;;7.30;99.90;;;;;;5056977;23;20422;-80
2021/12/17 09:22:38;;;;;;;;;;;8.00;99.90;;;;;;5078098;28;19971;-80
2021/12/17 09:25:04;;;;;;;;;;;7.70;99.90;;;;;;5078804;28;20041;-80
2021/12/17 09:27:30;;;;;;;;;;;7.70;99.90;;;;;;5078449;28;19920;-80
2021/12/17 09:29:55;;;;;;;;;;;8.30;99.90;;;;;;5079303;28;19924;-80
2021/12/17 09:32:21;;;;;;;;;;;7.90;99.90;;;;;;5061575;28;19926;-80
2021/12/17 09:34:46;;;;;;;;;;;7.80;99.90;;;;;;5061801;28;19975;-80
2021/12/17 09:37:13;;;;;;;;;;;7.80;99.90;;;;;;5061945;28;19919;-80
2021/12/17 09:39:39;;;;;;;;;;;8.30;99.90;;;;;;5078948;28;19931;-80
2021/12/17 09:42:04;;;;;;;;;;;7.80;99.90;;;;;;5062216;28;20359;-80
2021/12/17 09:44:30;;;;;;;;;;;7.80;99.90;;;;;;5067239;22;19927;-80
2021/12/17 09:46:57;;;;;;;;;;;7.80;99.90;;;;;;5044502;23;19921;-80
2021/12/17 09:49:23;;;;;;;;;;;7.80;99.90;;;;;;5021976;28;20015;-80
2021/12/17 09:51:49;;;;;;;;;;;8.20;99.90;;;;;;5022326;28;19956;-80
2021/12/17 09:54:14;;;;;;;;;;;7.80;99.90;;;;;;5039253;28;19928;-80
2021/12/17 09:56:40;;;;;;;;;;;8.50;99.90;;;;;;5056978;28;19925;-80
2021/12/17 09:59:05;;;;;;;;;;;7.90;99.90;;;;;;5056409;23;19920;-80
2021/12/17 10:01:35;;;;;;;;;;;7.90;99.90;;;;;;5050915;23;19920;-80
2021/12/17 10:04:18;;;;;;;;;;;8.00;99.90;;;;;;5044626;23;19920;-80
2021/12/17 10:06:44;;;;;;;;;;;7.90;99.90;;;;;;5039078;28;20015;-80
2021/12/17 10:09:10;;;;;;;;;;;7.90;99.90;;;;;;5022645;28;19979;-80
2021/12/17 10:11:36;;;;;;;;;;;7.90;99.90;;;;;;5048022;23;19955;-80
2021/12/17 10:14:22;;;;;;;;;;;8.50;99.90;;;;;;5077278;22;20296;-80
2021/12/17 10:16:48;;;;;;;;;;;7.90;99.90;;;;;;5034922;23;19920;-80
2021/12/17 10:19:34;;;;;;;;;;;8.00;99.90;;;;;;5062382;28;20338;-80
2021/12/17 10:22:09;;;;;;;;;;;8.00;99.90;;;;;;5062117;28;19920;-80
2021/12/17 10:24:36;;;;;;;;;;;8.00;99.90;;;;;;5044901;22;19920;-80
2021/12/17 10:27:16;;;;;;;;;;;8.10;99.90;;;;;;5065199;28;19920;-80
2021/12/17 10:29:42;;;;;;;;;;;8.10;99.90;;;;;;5067031;28;19923;-80
2021/12/17 10:32:09;;;;;;;;;;;8.10;99.90;;;;;;5057120;23;20299;-80
2021/12/17 10:34:34;;;;;;;;;;;8.10;99.90;;;;;;5009236;28;19920;-80
2021/12/17 10:37:00;;;;;;;;;;;8.10;99.90;;;;;;5035754;23;20011;-80
2021/12/17 10:39:30;;;;;;;;;;;8.20;99.90;;;;;;5043116;28;19927;-80
2021/12/17 10:41:56;;;;;;;;;;;8.70;99.90;;;;;;5055862;22;19922;-80
2021/12/17 10:44:22;;;;;;;;;;;8.50;99.90;;;;;;5002160;28;19921;-80
2021/12/17 10:47:09;;;;;;;;;;;8.20;99.90;;;;;;5029195;23;19928;-80
2021/12/17 10:49:35;;;;;;;;;;;8.20;99.90;;;;;;5024299;28;19928;-80
2021/12/17 10:52:03;;;;;;;;;;;8.30;99.90;;;;;;5022943;28;19972;-80
2021/12/17 10:54:29;;;;;;;;;;;8.30;99.90;;;;;;5022859;28;19924;-80
2021/12/17 10:56:55;;;;;;;;;;;8.90;99.90;;;;;;5067023;23;19927;-80
2021/12/17 11:01:46;;;;;;;;;;;8.30;99.90;;;;;;5027858;23;20299;-80
2021/12/17 11:04:19;;;;;;;;;;;8.70;99.90;;;;;;5019655;23;19920;-80
2021/12/17 11:07:02;;;;;;;;;;;8.40;99.90;;;;;;5024286;28;19920;-80
2021/12/17 11:09:32;;;;;;;;;;;8.40;99.90;;;;;;5071633;22;19928;-80
2021/12/17 11:12:01;;;;;;;;;;;8.50;99.90;;;;;;5040669;28;20363;-80
2021/12/17 11:14:27;;;;;;;;;;;8.80;99.90;;;;;;5024346;28;20016;-80
2021/12/17 11:16:53;;;;;;;;;;;8.50;99.90;;;;;;5040975;28;19949;-80
2021/12/17 11:21:52;;;;;;;;;;;8.50;99.90;;;;;;4992343;22;20210;-80
2021/12/17 11:24:17;;;;;;;;;;;8.60;99.90;;;;;;5001690;28;20292;-80
2021/12/17 11:26:43;;;;;;;;;;;9.40;99.90;;;;;;5002144;28;19928;-80
2021/12/17 11:29:09;;;;;;;;;;;8.70;99.90;;;;;;5018375;23;19921;-80
2021/12/17 11:31:35;;;;;;;;;;;8.60;99.90;;;;;;5045196;23;19982;-80
2021/12/17 11:34:01;;;;;;;;;;;8.60;99.90;;;;;;5061752;28;19959;-80
2021/12/17 11:36:28;;;;;;;;;;;9.30;99.90;;;;;;5050741;23;19920;-80
2021/12/17 11:38:57;;;;;;;;;;;8.70;99.90;;;;;;5058735;28;19990;-80
2021/12/17 11:41:44;;;;;;;;;;;8.70;99.90;;;;;;5058853;22;20008;-80
2021/12/17 11:44:12;;;;;;;;;;;8.70;99.90;;;;;;5022464;28;19928;-80
2021/12/17 11:46:38;;;;;;;;;;;8.80;99.90;;;;;;5038808;28;19917;-80
2021/12/17 11:49:12;;;;;;;;;;;8.80;99.90;;;;;;5014645;28;20280;-80
2021/12/17 11:51:38;;;;;;;;;;;8.80;99.90;;;;;;5015149;23;19921;-80
2021/12/17 11:54:14;;;;;;;;;;;8.80;99.90;;;;;;5002290;28;19967;-80
2021/12/17 11:56:40;;;;;;;;;;;8.80;99.90;;;;;;5030243;23;19917;-80
2021/12/17 11:59:08;;;;;;;;;;;8.80;99.90;;;;;;5059789;22;19920;-80
2021/12/17 12:02:03;;;;;;;;;;;8.80;99.90;;;;;;5041052;28;19921;-80
2021/12/17 12:06:58;;;;;;;;;;;8.90;99.90;;;;;;5106607;22;20489;-80
2021/12/17 12:09:47;;;;;;;;;;;8.90;99.90;;;;;;5043915;22;20389;-80
2021/12/17 12:12:13;;;;;;;;;;;8.90;99.90;;;;;;5040874;23;20005;-80
2021/12/17 12:14:38;;;;;;;;;;;8.90;99.90;;;;;;5068018;22;19950;-80
2021/12/17 12:17:04;;;;;;;;;;;8.80;99.90;;;;;;5047424;23;19935;-80
2021/12/17 12:19:49;;;;;;;;;;;8.90;99.90;;;;;;5024131;28;20360;-80
2021/12/17 12:22:28;;;;;;;;;;;8.90;99.90;;;;;;5041127;28;20023;-80
2021/12/17 12:25:23;;;;;;;;;;;8.90;99.90;;;;;;5025075;28;20257;-80
2021/12/17 12:27:48;;;;;;;;;;;8.80;99.90;;;;;;4944850;28;19922;-80
2021/12/17 12:30:14;;;;;;;;;;;8.90;99.90;;;;;;4944930;28;19922;-80
2021/12/17 12:32:58;;;;;;;;;;;9.00;99.90;;;;;;5010193;23;19955;-79
2021/12/17 12:35:24;;;;;;;;;;;8.80;99.90;;;;;;5064112;28;19924;-80
2021/12/17 12:38:09;;;;;;;;;;;8.80;99.90;;;;;;5079571;28;20354;-80
2021/12/17 12:40:42;;;;;;;;;;;8.90;99.90;;;;;;5061618;23;19920;-80
2021/12/17 12:43:23;;;;;;;;;;;8.80;99.90;;;;;;5055303;23;19946;-80
2021/12/17 12:45:49;;;;;;;;;;;8.80;99.90;;;;;;5063322;28;19924;-80
2021/12/17 12:48:26;;;;;;;;;;;9.60;99.90;;;;;;5063261;28;19984;-80
2021/12/17 12:51:11;;;;;;;;;;;9.30;99.90;;;;;;5098639;28;20376;-80
2021/12/17 12:53:37;;;;;;;;;;;8.80;99.90;;;;;;5059675;22;20371;-80
2021/12/17 12:56:07;;;;;;;;;;;8.90;99.90;;;;;;5076925;22;19927;-80
2021/12/17 12:58:36;;;;;;;;;;;8.90;99.90;;;;;;5023652;28;19921;-80
2021/12/17 13:01:05;;;;;;;;;;;8.90;99.90;;;;;;5023488;28;19921;-80
2021/12/17 13:03:31;;;;;;;;;;;8.90;99.90;;;;;;5023654;28;20275;-80
2021/12/17 13:05:59;;;;;;;;;;;8.90;99.90;;;;;;5051264;28;19921;-80
2021/12/17 13:10:58;;;;;;;;;;;8.90;99.90;;;;;;5038188;22;19925;-80
2021/12/17 13:13:34;;;;;;;;;;;8.90;99.90;;;;;;5002634;28;19921;-80
2021/12/17 13:16:19;;;;;;;;;;;9.70;99.90;;;;;;5019314;28;19921;-80
2021/12/17 13:21:35;;;;;;;;;;;8.90;99.90;;;;;;5036925;28;19921;-80
2021/12/17 13:24:13;;;;;;;;;;;8.90;99.90;;;;;;5019328;28;20344;-80
2021/12/17 13:26:39;;;;;;;;;;;8.90;99.90;;;;;;5035920;28;20310;-80
2021/12/17 13:29:13;;;;;;;;;;;8.80;99.90;;;;;;5019214;28;19928;-80
2021/12/17 13:31:41;;;;;;;;;;;8.90;99.90;;;;;;5002659;28;19921;-80
2021/12/17 13:34:19;;;;;;;;;;;8.90;99.90;;;;;;5036599;28;19992;-80
2021/12/17 13:37:04;;;;;;;;;;;8.90;99.90;;;;;;5019036;28;19921;-80
2021/12/17 13:39:31;;;;;;;;;;;8.90;99.90;;;;;;5018861;28;20271;-80
2021/12/17 13:41:57;;;;;;;;;;;9.50;99.90;;;;;;5002031;28;19921;-80
2021/12/17 13:44:27;;;;;;;;;;;8.90;99.90;;;;;;5018618;28;20295;-80
2021/12/17 13:47:06;;;;;;;;;;;8.80;99.90;;;;;;5002369;28;19921;-80
2021/12/17 13:49:32;;;;;;;;;;;9.30;99.90;;;;;;5018650;28;19927;-80
2021/12/17 13:51:57;;;;;;;;;;;8.90;99.90;;;;;;5035917;28;20008;-80
2021/12/17 13:54:23;;;;;;;;;;;8.90;99.90;;;;;;5002469;28;19925;-80
2021/12/17 13:56:56;;;;;;;;;;;8.80;99.90;;;;;;5001494;28;20280;-80
2021/12/17 13:59:31;;;;;;;;;;;8.80;99.90;;;;;;5001410;28;19921;-80
2021/12/17 14:01:57;;;;;;;;;;;8.80;99.90;;;;;;5036189;28;20371;-80
2021/12/17 14:04:23;;;;;;;;;;;9.00;99.90;;;;;;5002650;28;19928;-80
2021/12/17 14:06:53;;;;;;;;;;;9.40;99.90;;;;;;5036215;28;20391;-80
2021/12/17 14:09:19;;;;;;;;;;;8.80;99.90;;;;;;5001891;28;20284;-80
2021/12/17 14:11:45;;;;;;;;;;;8.90;99.90;;;;;;5001630;28;20290;-80
2021/12/17 14:14:21;;;;;;;;;;;8.80;99.90;;;;;;5017996;28;19921;-80
2021/12/17 14:16:54;;;;;;;;;;;8.80;99.90;;;;;;5001889;28;19921;-80
2021/12/17 14:19:33;;;;;;;;;;;8.80;99.90;;;;;;5017712;28;19932;-80
2021/12/17 14:21:59;;;;;;;;;;;8.80;99.90;;;;;;5035376;28;20352;-80
2021/12/17 14:24:28;;;;;;;;;;;8.90;99.90;;;;;;5000921;28;19991;-80
2021/12/17 14:26:54;;;;;;;;;;;8.80;99.90;;;;;;5017731;28;19985;-80
2021/12/17 14:29:20;;;;;;;;;;;8.60;99.90;;;;;;5018303;28;19925;-80
2021/12/17 14:31:45;;;;;;;;;;;9.60;99.90;;;;;;5002037;28;19976;-80
2021/12/17 14:34:15;;;;;;;;;;;8.80;99.90;;;;;;5002287;28;20007;-80
2021/12/17 14:36:41;;;;;;;;;;;8.80;99.90;;;;;;5018674;28;19925;-80
2021/12/17 14:39:15;;;;;;;;;;;8.80;99.90;;;;;;5000680;28;20391;-80
2021/12/17 14:41:55;;;;;;;;;;;8.80;99.90;;;;;;5002152;28;20023;-80
2021/12/17 14:45:09;;;;;;;;;;;8.80;99.90;;;;;;5002353;28;19924;-80
2021/12/17 15:05:46;;;;;;;;;;;9.40;99.90;;;;;;5075615;28;19931;-80
2021/12/17 15:08:11;;;;;;;;;;;9.40;99.90;;;;;;5058988;28;19920;-80
2021/12/17 15:10:38;;;;;;;;;;;9.00;99.90;;;;;;5058653;23;20007;-80
2021/12/17 15:13:05;;;;;;;;;;;8.80;99.90;;;;;;5051268;23;19975;-80
2021/12/17 15:15:35;;;;;;;;;;;9.30;99.90;;;;;;5032055;23;20024;-80
2021/12/17 15:18:02;;;;;;;;;;;8.70;99.90;;;;;;5038563;23;19933;-80
2021/12/17 15:20:29;;;;;;;;;;;8.70;99.90;;;;;;5036232;22;19928;-80
2021/12/17 15:22:56;;;;;;;;;;;8.70;99.90;;;;;;4989545;28;19975;-80
2021/12/17 15:27:48;;;;;;;;;;;8.70;99.90;;;;;;5104836;22;19977;-80
2021/12/17 15:30:16;;;;;;;;;;;9.40;99.90;;;;;;5042095;23;19921;-80
2021/12/17 15:32:43;;;;;;;;;;;8.70;99.90;;;;;;5042131;23;19921;-80
2021/12/17 15:35:11;;;;;;;;;;;8.70;99.90;;;;;;5022814;23;19977;-80
2021/12/17 15:37:37;;;;;;;;;;;8.70;99.90;;;;;;5052600;22;20337;-80
2021/12/17 15:40:03;;;;;;;;;;;8.70;99.90;;;;;;5044692;23;19925;-80
2021/12/17 15:42:29;;;;;;;;;;;8.70;99.90;;;;;;5059920;23;20019;-80
2021/12/17 15:44:54;;;;;;;;;;;8.70;99.90;;;;;;5062855;28;19962;-80
2021/12/17 15:47:20;;;;;;;;;;;8.60;99.90;;;;;;5065034;23;19921;-80
2021/12/17 15:49:45;;;;;;;;;;;9.30;99.90;;;;;;5057715;23;19925;-80
2021/12/17 15:52:11;;;;;;;;;;;8.70;99.90;;;;;;5043020;28;19978;-80
2021/12/17 15:54:37;;;;;;;;;;;9.00;99.90;;;;;;5050669;23;20020;-81
2021/12/17 15:57:03;;;;;;;;;;;8.70;99.90;;;;;;5063667;23;19974;-80
2021/12/17 15:59:29;;;;;;;;;;;8.60;99.90;;;;;;5050749;23;19924;-80
2021/12/17 16:01:55;;;;;;;;;;;8.70;99.90;;;;;;5058410;23;19920;-80
2021/12/17 16:04:30;;;;;;;;;;;8.60;99.90;;;;;;5045334;23;19928;-80
2021/12/17 16:06:58;;;;;;;;;;;8.60;99.90;;;;;;5055438;23;19924;-80
2021/12/17 16:16:50;;;;;;;;;;;8.60;99.90;;;;;;5035744;23;20307;-80
2021/12/17 16:22:50;;;;;;;;;;;8.60;99.90;;;;;;5061738;23;19921;-80
2021/12/17 16:25:16;;;;;;;;;;;8.60;99.90;;;;;;5059881;23;19927;-80
2021/12/17 16:27:42;;;;;;;;;;;8.60;99.90;;;;;;5053319;23;19932;-80
2021/12/17 16:30:08;;;;;;;;;;;8.60;99.90;;;;;;5053507;23;19991;-80
2021/12/17 16:32:34;;;;;;;;;;;8.60;99.90;;;;;;5028017;22;19925;-80
2021/12/17 16:35:00;;;;;;;;;;;8.60;99.90;;;;;;5053246;23;20035;-80
2021/12/17 16:37:32;;;;;;;;;;;8.60;99.90;;;;;;5059312;23;20423;-80
2021/12/17 16:39:57;;;;;;;;;;;8.50;99.90;;;;;;5038989;28;19978;-80
2021/12/17 16:42:23;;;;;;;;;;;9.20;99.90;;;;;;5055629;23;19920;-80
2021/12/17 16:49:51;;;;;;;;;;;8.60;99.90;;;;;;5038182;28;19928;-80
2021/12/17 16:52:16;;;;;;;;;;;8.60;99.90;;;;;;5021683;28;19924;-80
2021/12/17 16:54:42;;;;;;;;;;;8.50;99.90;;;;;;5021522;28;19921;-80
2021/12/17 16:57:07;;;;;;;;;;;8.60;99.90;;;;;;5028501;23;19921;-80
2021/12/17 16:59:33;;;;;;;;;;;8.60;99.90;;;;;;5022219;28;19925;-80
2021/12/17 17:01:59;;;;;;;;;;;8.50;99.90;;;;;;5022356;28;19921;-81
2021/12/17 17:04:25;;;;;;;;;;;9.20;99.90;;;;;;5022302;28;19923;-80
2021/12/17 17:06:51;;;;;;;;;;;9.50;99.90;;;;;;5038013;28;19928;-80
2021/12/17 17:09:16;;;;;;;;;;;8.50;99.90;;;;;;5021478;28;19921;-81
2021/12/17 17:11:44;;;;;;;;;;;9.00;99.90;;;;;;5052125;23;19926;-80
2021/12/17 17:14:11;;;;;;;;;;;8.50;99.90;;;;;;5081506;28;19920;-80
2021/12/17 17:16:39;;;;;;;;;;;9.50;99.90;;;;;;5066049;22;19971;-80
2021/12/17 17:19:05;;;;;;;;;;;8.50;99.90;;;;;;5041505;28;19921;-80
2021/12/17 17:21:30;;;;;;;;;;;9.40;99.90;;;;;;5041389;28;19921;-80
2021/12/17 17:23:59;;;;;;;;;;;8.50;99.90;;;;;;5041520;28;19927;-80
2021/12/17 17:26:25;;;;;;;;;;;9.00;99.90;;;;;;5040798;28;19923;-81
2021/12/17 17:28:51;;;;;;;;;;;8.50;99.90;;;;;;5058744;28;20008;-80
2021/12/17 17:31:17;;;;;;;;;;;8.50;99.90;;;;;;5040986;28;19920;-81
2021/12/17 17:33:47;;;;;;;;;;;8.80;99.90;;;;;;5056643;28;20283;-80
2021/12/17 17:36:14;;;;;;;;;;;8.50;99.90;;;;;;5040836;28;19974;-80
2021/12/17 17:38:40;;;;;;;;;;;8.50;99.90;;;;;;5041739;28;19916;-80
2021/12/17 17:41:05;;;;;;;;;;;9.30;99.90;;;;;;5057450;28;19921;-80
2021/12/17 17:43:31;;;;;;;;;;;8.40;99.90;;;;;;5058086;28;19921;-80
2021/12/17 17:45:57;;;;;;;;;;;8.90;99.90;;;;;;5039636;28;19960;-80
2021/12/17 17:48:22;;;;;;;;;;;8.50;99.90;;;;;;5040799;28;19964;-80
2021/12/17 17:50:48;;;;;;;;;;;8.90;99.90;;;;;;5040174;28;19920;-80
2021/12/17 17:53:13;;;;;;;;;;;8.50;99.90;;;;;;5040624;28;20343;-80
2021/12/17 17:55:41;;;;;;;;;;;8.50;99.90;;;;;;5023584;28;20007;-80
2021/12/17 17:58:07;;;;;;;;;;;8.50;99.90;;;;;;5040663;28;19920;-80